Time;durP1;ratioP1;P1;durP2;ratioP2;P2;SDS_P1;SDS_P2;PMS_P1;PMS_P2;Temp;Humidity;BMP_temperature;BMP_pressure;BME280_temperature;BME280_humidity;BME280_pressure;Samples;Min_cycle;Max_cycle;Signal;HPM_P1;HPM_P2
2022/05/08 00:00:31;;;;;;;8.75;4.93;;;384.50;1766.40;;;;;;5095202;28;20089;-78
2022/05/08 00:02:58;;;;;;;11.82;5.50;;;384.40;1766.40;;;;;;5094776;28;20084;-78
2022/05/08 00:05:26;;;;;;;11.85;4.57;;;384.40;1766.40;;;;;;5094857;28;20028;-79
2022/05/08 00:07:53;;;;;;;11.05;5.07;;;384.40;1766.40;;;;;;5095152;28;20028;-78
2022/05/08 00:10:19;;;;;;;11.55;4.80;;;384.30;1792.00;;;;;;5095803;28;20027;-78
2022/05/08 00:12:45;;;;;;;16.90;5.15;;;384.30;1792.00;;;;;;5094725;28;20024;-79
2022/05/08 00:15:11;;;;;;;12.18;4.55;;;384.50;1792.00;;;;;;5094599;28;20128;-79
2022/05/08 00:17:37;;;;;;;12.10;4.93;;;384.50;1766.40;;;;;;5094983;28;20615;-78
2022/05/08 00:20:08;;;;;;;7.28;4.85;;;384.90;1792.00;;;;;;5094707;28;20020;-79
2022/05/08 00:22:34;;;;;;;10.30;4.25;;;384.40;1817.60;;;;;;5095072;28;20133;-79
2022/05/08 00:25:00;;;;;;;13.05;5.38;;;384.40;1843.20;;;;;;5094651;28;20056;-78
2022/05/08 00:27:26;;;;;;;9.60;4.88;;;384.40;1817.60;;;;;;5094548;28;20016;-79
2022/05/08 00:29:52;;;;;;;20.40;5.38;;;384.40;1792.00;;;;;;5094781;28;20020;-78
2022/05/08 00:32:18;;;;;;;16.58;5.25;;;384.40;1817.60;;;;;;5094458;28;20434;-79
2022/05/08 00:34:44;;;;;;;8.63;4.85;;;384.40;1817.60;;;;;;5092204;28;20765;-79
2022/05/08 00:37:10;;;;;;;13.07;5.85;;;384.40;1792.00;;;;;;5094354;28;20487;-79
2022/05/08 00:39:36;;;;;;;9.65;4.35;;;384.60;1792.00;;;;;;5094742;28;20495;-79
2022/05/08 00:42:02;;;;;;;11.27;4.85;;;384.50;1792.00;;;;;;5094318;28;20016;-79
2022/05/08 00:44:29;;;;;;;8.88;5.05;;;384.60;1817.60;;;;;;5095497;28;20040;-79
2022/05/08 00:46:55;;;;;;;12.23;4.70;;;384.50;1817.60;;;;;;5095445;28;20037;-79
2022/05/08 00:49:21;;;;;;;10.75;5.03;;;384.60;1817.60;;;;;;5095565;28;20117;-79
2022/05/08 00:51:49;;;;;;;7.75;4.30;;;384.50;1843.20;;;;;;5093629;28;20069;-79
2022/05/08 00:54:16;;;;;;;13.27;5.22;;;384.50;1843.20;;;;;;5094120;28;20028;-79
2022/05/08 00:56:42;;;;;;;11.93;4.70;;;384.50;1868.80;;;;;;5094015;28;20027;-79
2022/05/08 00:59:08;;;;;;;17.33;4.40;;;384.60;1868.80;;;;;;5094052;28;20020;-79
2022/05/08 01:01:34;;;;;;;12.75;5.32;;;384.60;1868.80;;;;;;5095496;28;20074;-79
2022/05/08 01:04:00;;;;;;;14.77;4.82;;;384.70;1920.00;;;;;;5094030;28;20036;-78
2022/05/08 01:06:27;;;;;;;9.90;4.22;;;384.70;1868.80;;;;;;5093688;28;20495;-79
2022/05/08 01:08:53;;;;;;;9.65;4.53;;;384.70;1868.80;;;;;;5093913;28;20388;-79
2022/05/08 01:11:19;;;;;;;10.85;5.20;;;384.70;1868.80;;;;;;5093814;28;20380;-79
2022/05/08 01:13:45;;;;;;;7.38;4.47;;;384.70;1868.80;;;;;;5093816;28;20112;-79
2022/05/08 01:16:16;;;;;;;14.50;4.95;;;384.70;1868.80;;;;;;5094891;28;20099;-79
2022/05/08 01:18:44;;;;;;;9.73;4.82;;;384.70;1843.20;;;;;;5094924;28;20022;-79
2022/05/08 01:21:16;;;;;;;11.10;4.85;;;384.70;1868.80;;;;;;5093798;28;20476;-78
2022/05/08 01:23:43;;;;;;;13.25;4.30;;;384.80;1843.20;;;;;;5094943;28;20020;-79
2022/05/08 01:26:09;;;;;;;9.38;5.38;;;384.90;1843.20;;;;;;5093562;28;20052;-78
2022/05/08 01:28:35;;;;;;;12.15;4.10;;;384.50;1817.60;;;;;;5093762;28;20078;-79
2022/05/08 01:31:00;;;;;;;10.98;4.65;;;409.70;1843.20;;;;;;5093357;28;20035;-79
2022/05/08 01:33:27;;;;;;;9.65;4.90;;;409.70;1843.20;;;;;;5093575;28;20032;-79
2022/05/08 01:35:53;;;;;;;8.18;3.90;;;409.80;1868.80;;;;;;5093991;28;20062;-78
2022/05/08 01:38:21;;;;;;;10.63;4.35;;;409.90;1868.80;;;;;;5093088;28;20024;-79
2022/05/08 01:40:47;;;;;;;12.80;5.07;;;409.70;1920.00;;;;;;5098904;28;20468;-78
2022/05/08 01:43:13;;;;;;;9.23;4.47;;;409.70;1945.60;;;;;;5094176;28;20506;-79
2022/05/08 01:45:39;;;;;;;13.38;4.10;;;384.90;1945.60;;;;;;5093315;28;20032;-78
2022/05/08 01:48:26;;;;;;;13.50;4.32;;;384.80;1945.60;;;;;;5092940;28;20016;-79
2022/05/08 01:50:53;;;;;;;12.73;4.65;;;384.70;2022.40;;;;;;5090617;28;20052;-78
2022/05/08 01:53:20;;;;;;;6.63;4.07;;;384.60;2022.40;;;;;;5094367;28;20523;-78
2022/05/08 01:55:54;;;;;;;11.85;5.20;;;384.80;1996.80;;;;;;5091288;28;20027;-78
2022/05/08 01:58:24;;;;;;;7.95;4.20;;;384.70;1996.80;;;;;;5094256;28;20019;-78
2022/05/08 02:00:51;;;;;;;8.95;4.57;;;384.70;2022.40;;;;;;5090277;28;20071;-78
2022/05/08 02:03:19;;;;;;;7.28;3.95;;;384.70;2022.40;;;;;;5093317;28;20020;-78
2022/05/08 02:05:44;;;;;;;16.27;4.75;;;384.70;1996.80;;;;;;5092614;28;20512;-78
2022/05/08 02:08:11;;;;;;;8.27;4.32;;;384.70;1971.20;;;;;;5092536;28;20020;-78
2022/05/08 02:10:38;;;;;;;13.07;4.93;;;384.60;1996.80;;;;;;5092690;28;20032;-78
2022/05/08 02:13:04;;;;;;;13.77;4.88;;;384.40;1996.80;;;;;;5092105;28;20376;-78
2022/05/08 02:15:30;;;;;;;10.38;5.07;;;384.40;1996.80;;;;;;5092729;28;20016;-78
2022/05/08 02:18:01;;;;;;;9.88;4.65;;;384.40;2048.00;;;;;;5091467;28;20502;-78
2022/05/08 02:20:28;;;;;;;8.88;3.92;;;384.20;2048.00;;;;;;5092597;28;20020;-78
2022/05/08 02:22:53;;;;;;;9.43;4.60;;;384.20;2048.00;;;;;;5091800;28;20115;-78
2022/05/08 02:25:20;;;;;;;10.90;4.93;;;384.20;2022.40;;;;;;5092377;28;20114;-78
2022/05/08 02:27:49;;;;;;;10.60;4.63;;;384.30;1996.80;;;;;;5091692;28;20047;-78
2022/05/08 02:30:16;;;;;;;9.77;4.72;;;384.40;1996.80;;;;;;5093302;28;20379;-78
2022/05/08 02:32:42;;;;;;;8.82;4.28;;;384.40;1971.20;;;;;;5092455;28;20019;-78
2022/05/08 02:35:12;;;;;;;11.88;4.60;;;384.40;1945.60;;;;;;5089479;28;20380;-78
2022/05/08 02:37:41;;;;;;;11.95;4.75;;;384.40;1945.60;;;;;;5091951;28;20028;-78
2022/05/08 02:40:08;;;;;;;7.47;3.78;;;384.60;1945.60;;;;;;5093117;28;20480;-78
2022/05/08 02:42:36;;;;;;;7.05;3.80;;;384.60;1945.60;;;;;;5091831;28;20054;-78
2022/05/08 02:45:03;;;;;;;11.45;3.95;;;384.60;1945.60;;;;;;5091829;28;20068;-78
2022/05/08 02:47:29;;;;;;;10.18;4.35;;;384.60;1945.60;;;;;;5088765;28;20131;-78
2022/05/08 02:49:55;;;;;;;7.57;3.58;;;384.70;1945.60;;;;;;5091676;28;20527;-78
2022/05/08 02:52:20;;;;;;;6.18;3.35;;;384.60;1945.60;;;;;;5092879;28;20058;-78
2022/05/08 02:54:46;;;;;;;9.90;3.90;;;384.70;1945.60;;;;;;5091465;28;20559;-78
2022/05/08 03:00:02;;;;;;;7.90;4.50;;;384.40;1996.80;;;;;;5091397;28;20153;-78
2022/05/08 03:02:28;;;;;;;10.93;3.58;;;384.50;1996.80;;;;;;5091633;28;20024;-78
2022/05/08 03:04:54;;;;;;;7.80;3.85;;;384.50;1996.80;;;;;;5091573;28;20115;-79
2022/05/08 03:07:20;;;;;;;9.73;4.72;;;384.40;2022.40;;;;;;5091570;28;20484;-79
2022/05/08 03:09:46;;;;;;;9.55;4.28;;;384.30;2022.40;;;;;;5091522;28;20034;-79
2022/05/08 03:12:12;;;;;;;8.82;4.78;;;384.20;2022.40;;;;;;5092823;28;20396;-78
2022/05/08 03:14:38;;;;;;;11.82;4.75;;;384.10;2022.40;;;;;;5092447;28;20059;-79
2022/05/08 03:17:04;;;;;;;11.18;4.32;;;384.20;2048.00;;;;;;5091581;28;20077;-79
2022/05/08 03:19:31;;;;;;;8.18;4.68;;;384.30;2022.40;;;;;;5092630;28;20048;-78
2022/05/08 03:21:57;;;;;;;8.20;4.55;;;384.30;2022.40;;;;;;5092468;28;20103;-78
2022/05/08 03:24:23;;;;;;;6.88;4.07;;;384.30;2022.40;;;;;;5090852;28;20127;-79
2022/05/08 03:26:49;;;;;;;16.25;5.28;;;384.40;2022.40;;;;;;5090593;28;20472;-78
2022/05/08 03:29:14;;;;;;;8.88;3.67;;;384.30;2048.00;;;;;;5091020;28;20020;-78
2022/05/08 03:31:40;;;;;;;7.70;4.40;;;384.10;2073.60;;;;;;5092258;28;20020;-79
2022/05/08 03:34:06;;;;;;;10.93;4.40;;;384.00;2124.80;;;;;;5091161;28;20060;-78
2022/05/08 03:36:31;;;;;;;11.65;4.18;;;359.30;2176.00;;;;;;5091128;28;20031;-78
2022/05/08 03:38:57;;;;;;;6.43;4.00;;;359.30;2176.00;;;;;;5091261;28;20027;-78
2022/05/08 03:41:23;;;;;;;10.45;4.22;;;359.10;2201.60;;;;;;5092003;28;20526;-78
2022/05/08 03:43:50;;;;;;;8.85;4.05;;;359.10;2227.20;;;;;;5090800;28;20050;-78
2022/05/08 03:46:17;;;;;;;10.30;4.15;;;359.00;2252.80;;;;;;5090562;28;20084;-79
2022/05/08 03:48:43;;;;;;;10.00;4.35;;;358.90;2252.80;;;;;;5092442;28;20027;-78
2022/05/08 03:51:08;;;;;;;17.20;5.40;;;358.90;2278.40;;;;;;5092087;28;20091;-79
2022/05/08 03:53:34;;;;;;;12.27;4.93;;;358.90;2304.00;;;;;;5090426;28;20115;-78
2022/05/08 03:56:00;;;;;;;12.02;4.55;;;358.90;2304.00;;;;;;5090766;28;20162;-78
2022/05/08 03:58:26;;;;;;;9.57;4.65;;;358.90;2329.60;;;;;;5090427;28;20527;-79
2022/05/08 04:00:53;;;;;;;11.23;4.50;;;359.00;2304.00;;;;;;5089454;28;20044;-78
2022/05/08 04:03:19;;;;;;;9.23;4.68;;;359.00;2329.60;;;;;;5092008;28;20032;-78
2022/05/08 04:05:45;;;;;;;10.50;4.05;;;359.00;2329.60;;;;;;5092361;28;20024;-78
2022/05/08 04:08:10;;;;;;;9.80;4.13;;;359.00;2329.60;;;;;;5090173;28;20111;-79
2022/05/08 04:10:36;;;;;;;11.65;4.20;;;359.00;2329.60;;;;;;5092130;28;20019;-78
2022/05/08 04:13:02;;;;;;;8.25;4.47;;;359.10;2329.60;;;;;;5091526;28;20032;-78
2022/05/08 04:18:12;;;;;;;13.25;4.40;;;359.20;2278.40;;;;;;5089861;28;20071;-78
2022/05/08 04:20:38;;;;;;;16.35;5.13;;;359.30;2252.80;;;;;;5090685;28;20044;-79
2022/05/08 04:25:55;;;;;;;16.30;4.50;;;384.10;2227.20;;;;;;5091348;28;20085;-79
2022/05/08 04:28:21;;;;;;;7.93;4.45;;;384.20;2201.60;;;;;;5091596;28;20031;-79
2022/05/08 04:30:48;;;;;;;8.65;4.07;;;384.00;2227.20;;;;;;5092168;28;20020;-79
2022/05/08 04:33:14;;;;;;;10.45;4.30;;;384.40;2252.80;;;;;;5090569;28;20020;-79
2022/05/08 04:35:40;;;;;;;9.95;4.28;;;384.50;2252.80;;;;;;5091807;28;20016;-79
2022/05/08 04:38:06;;;;;;;9.82;4.03;;;384.60;2252.80;;;;;;5089682;28;20377;-79
2022/05/08 04:40:31;;;;;;;11.20;4.25;;;384.70;2278.40;;;;;;5090337;28;20030;-78
2022/05/08 04:42:57;;;;;;;13.85;4.30;;;384.70;2278.40;;;;;;5093893;28;20119;-78
2022/05/08 04:45:23;;;;;;;8.30;4.28;;;384.90;2278.40;;;;;;5094308;28;20483;-78
2022/05/08 04:47:48;;;;;;;11.23;4.55;;;409.60;2278.40;;;;;;5094190;28;20547;-78
2022/05/08 04:50:14;;;;;;;9.38;3.53;;;409.70;2252.80;;;;;;5094388;28;20027;-78
2022/05/08 04:52:40;;;;;;;8.98;4.00;;;409.70;2278.40;;;;;;5093797;28;20024;-80
2022/05/08 04:55:06;;;;;;;11.32;3.88;;;409.80;2278.40;;;;;;5093545;28;20472;-79
2022/05/08 04:57:32;;;;;;;10.07;3.88;;;409.90;2252.80;;;;;;5095361;28;20020;-79
2022/05/08 04:59:58;;;;;;;11.15;4.38;;;409.90;2278.40;;;;;;5093987;28;20075;-79
2022/05/08 05:02:24;;;;;;;8.20;4.03;;;410.00;2278.40;;;;;;5095654;28;20035;-80
2022/05/08 05:04:50;;;;;;;8.45;3.92;;;410.10;2278.40;;;;;;5095209;28;20040;-80
2022/05/08 05:07:16;;;;;;;5.95;3.60;;;410.20;2278.40;;;;;;5094514;28;20391;-80
2022/05/08 05:09:42;;;;;;;11.25;3.97;;;410.20;2278.40;;;;;;5093639;28;20026;-79
2022/05/08 05:12:08;;;;;;;8.10;3.55;;;410.20;2252.80;;;;;;5095556;28;20468;-80
2022/05/08 05:14:34;;;;;;;8.95;3.88;;;410.20;2252.80;;;;;;5093890;28;20487;-80
2022/05/08 05:17:00;;;;;;;8.57;3.65;;;410.40;2227.20;;;;;;5094275;28;20020;-79
2022/05/08 05:19:29;;;;;;;9.07;3.90;;;410.40;2278.40;;;;;;5093968;28;20105;-80
2022/05/08 05:21:54;;;;;;;7.50;3.75;;;410.40;2278.40;;;;;;5093615;28;20436;-78
2022/05/08 05:24:20;;;;;;;8.55;3.20;;;410.50;2201.60;;;;;;5093665;28;20118;-78
2022/05/08 05:26:46;;;;;;;11.65;4.25;;;410.40;2201.60;;;;;;5093183;28;20372;-79
2022/05/08 05:29:11;;;;;;;7.65;4.53;;;410.50;2150.40;;;;;;5093393;28;20047;-78
2022/05/08 05:31:37;;;;;;;11.93;3.88;;;410.50;2124.80;;;;;;5093331;28;20027;-78
2022/05/08 05:34:03;;;;;;;7.47;3.80;;;435.20;2073.60;;;;;;5094855;28;20077;-79
2022/05/08 05:36:29;;;;;;;11.52;4.07;;;435.30;2048.00;;;;;;5094729;28;20020;-78
2022/05/08 05:38:54;;;;;;;7.20;3.42;;;435.40;2073.60;;;;;;5093049;28;20020;-77
2022/05/08 05:41:20;;;;;;;7.28;3.42;;;435.40;1996.80;;;;;;5094080;28;20092;-78
2022/05/08 05:43:46;;;;;;;9.20;3.83;;;435.50;1971.20;;;;;;5092958;28;20538;-77
2022/05/08 05:48:57;;;;;;;13.27;3.10;;;435.80;2022.40;;;;;;5094076;28;20023;-75
2022/05/08 05:51:23;;;;;;;8.43;3.17;;;435.80;1843.20;;;;;;5094586;28;20028;-77
2022/05/08 05:53:48;;;;;;;21.90;3.92;;;435.80;1817.60;;;;;;5091749;28;20028;-78
2022/05/08 05:56:14;;;;;;;8.18;3.30;;;435.90;1868.80;;;;;;5093801;28;20115;-80
2022/05/08 05:58:40;;;;;;;7.28;3.55;;;435.90;1843.20;;;;;;5093662;28;20024;-79
2022/05/08 06:01:05;;;;;;;9.20;3.75;;;436.00;1843.20;;;;;;5093529;28;20052;-79
2022/05/08 06:03:32;;;;;;;6.05;3.30;;;436.10;1843.20;;;;;;5093368;28;20032;-79
2022/05/08 06:05:58;;;;;;;8.65;3.35;;;460.80;1920.00;;;;;;5093173;28;20043;-78
2022/05/08 06:08:24;;;;;;;8.85;3.67;;;460.80;1817.60;;;;;;5094764;28;20020;-79
2022/05/08 06:10:50;;;;;;;9.05;3.50;;;460.90;1766.40;;;;;;5092728;28;20044;-77
2022/05/08 06:13:16;;;;;;;6.25;3.08;;;460.90;1740.80;;;;;;5092863;28;20039;-76
2022/05/08 06:15:42;;;;;;;10.98;3.25;;;461.00;1740.80;;;;;;5092632;28;20100;-77
2022/05/08 06:18:08;;;;;;;10.85;3.13;;;460.90;1766.40;;;;;;5092837;28;20028;-77
2022/05/08 06:20:34;;;;;;;12.75;3.40;;;460.90;1766.40;;;;;;5094061;28;20020;-77
2022/05/08 06:23:00;;;;;;;7.00;3.55;;;460.80;1843.20;;;;;;5094008;28;20032;-76
2022/05/08 06:25:26;;;;;;;5.85;3.33;;;460.80;1843.20;;;;;;5092461;28;20620;-79
2022/05/08 06:27:52;;;;;;;8.07;3.08;;;460.90;1817.60;;;;;;5092777;28;20029;-78
2022/05/08 06:30:18;;;;;;;6.85;2.90;;;460.90;1817.60;;;;;;5092519;28;20428;-79
2022/05/08 06:32:43;;;;;;;5.38;3.30;;;460.90;1792.00;;;;;;5092218;28;20077;-79
2022/05/08 06:35:09;;;;;;;12.57;4.32;;;461.00;1792.00;;;;;;5092358;28;20502;-78
2022/05/08 06:37:35;;;;;;;7.28;3.30;;;461.00;1766.40;;;;;;5092487;28;20115;-79
2022/05/08 06:40:00;;;;;;;8.45;3.53;;;461.00;1766.40;;;;;;5093840;28;20035;-77
2022/05/08 06:42:26;;;;;;;11.90;3.90;;;461.10;1766.40;;;;;;5093493;28;20532;-77
2022/05/08 06:44:52;;;;;;;8.30;3.40;;;461.10;1740.80;;;;;;5093445;28;20040;-76
2022/05/08 06:47:17;;;;;;;8.70;3.22;;;461.20;1740.80;;;;;;5093624;28;20027;-78
2022/05/08 06:49:43;;;;;;;7.97;3.40;;;461.20;1740.80;;;;;;5092331;28;20499;-76
2022/05/08 06:52:09;;;;;;;9.48;3.38;;;461.30;1740.80;;;;;;5093360;28;20023;-77
2022/05/08 06:54:35;;;;;;;8.35;3.53;;;461.50;1740.80;;;;;;5093456;28;20089;-77
2022/05/08 06:57:00;;;;;;;13.07;3.60;;;461.70;1689.60;;;;;;5093186;28;20099;-77
2022/05/08 07:02:11;;;;;;;6.05;3.42;;;486.50;1689.60;;;;;;5093384;28;20102;-79
2022/05/08 07:04:40;;;;;;;6.45;3.38;;;486.70;1664.00;;;;;;5091644;28;20036;-78
2022/05/08 07:07:06;;;;;;;6.05;3.67;;;486.70;1715.20;;;;;;5092131;28;20081;-79
2022/05/08 07:09:32;;;;;;;6.15;3.55;;;486.80;1715.20;;;;;;5091892;28;20152;-77
2022/05/08 07:11:58;;;;;;;6.55;3.38;;;486.80;1638.40;;;;;;5091075;28;20123;-78
2022/05/08 07:14:24;;;;;;;13.93;3.90;;;486.90;1638.40;;;;;;5091231;28;20043;-78
2022/05/08 07:16:50;;;;;;;7.20;3.28;;;486.90;1612.80;;;;;;5090217;28;20177;-78
2022/05/08 07:19:16;;;;;;;8.80;3.63;;;487.00;1638.40;;;;;;5090828;28;20127;-78
2022/05/08 07:21:41;;;;;;;7.93;3.33;;;487.30;1612.80;;;;;;5090070;28;20016;-79
2022/05/08 07:24:08;;;;;;;7.95;3.22;;;512.00;1638.40;;;;;;5083596;28;20028;-79
2022/05/08 07:26:35;;;;;;;23.77;4.72;;;512.30;1638.40;;;;;;5071872;28;20017;-78
2022/05/08 07:29:01;;;;;;;6.88;3.03;;;512.40;1612.80;;;;;;5088427;28;20537;-78
2022/05/08 07:31:27;;;;;;;5.70;2.90;;;512.70;1587.20;;;;;;5091003;28;20032;-78
2022/05/08 07:36:36;;;;;;;8.02;3.85;;;512.90;1536.00;;;;;;5093285;28;20066;-78
2022/05/08 07:39:02;;;;;;;11.90;3.63;;;512.90;1536.00;;;;;;5092753;28;20056;-78
2022/05/08 07:41:30;;;;;;;35.10;4.57;;;537.60;1536.00;;;;;;5091317;28;20028;-78
2022/05/08 07:43:55;;;;;;;10.35;3.85;;;537.70;1561.60;;;;;;5090869;28;20120;-78
2022/05/08 07:46:22;;;;;;;10.57;3.17;;;537.60;1510.40;;;;;;5091474;28;20116;-77
2022/05/08 07:48:47;;;;;;;10.10;3.58;;;537.80;1510.40;;;;;;5091358;28;20021;-77
2022/05/08 07:51:13;;;;;;;6.13;3.00;;;537.90;1536.00;;;;;;5092642;28;20031;-78
2022/05/08 07:53:39;;;;;;;9.95;3.63;;;538.00;1510.40;;;;;;5092259;28;20026;-77
2022/05/08 07:56:05;;;;;;;8.65;3.35;;;538.20;1561.60;;;;;;5092559;28;20379;-77
2022/05/08 07:58:32;;;;;;;11.48;3.38;;;538.30;1612.80;;;;;;5090863;28;20036;-77
2022/05/08 08:00:58;;;;;;;8.18;3.45;;;538.50;1536.00;;;;;;5090617;28;20063;-77
2022/05/08 08:03:27;;;;;;;10.30;3.33;;;538.50;1536.00;;;;;;5090582;28;20043;-77
2022/05/08 08:05:54;;;;;;;9.90;3.47;;;563.20;1510.40;;;;;;5092053;28;20114;-77
2022/05/08 08:08:23;;;;;;;5.97;3.45;;;563.40;1587.20;;;;;;5092499;28;20024;-78
2022/05/08 08:10:52;;;;;;;8.65;3.17;;;563.40;1587.20;;;;;;5092093;28;20028;-78
2022/05/08 08:13:18;;;;;;;11.07;3.10;;;563.60;1536.00;;;;;;5091011;28;20029;-77
2022/05/08 08:15:45;;;;;;;14.32;3.47;;;563.70;1587.20;;;;;;5091833;28;20024;-77
2022/05/08 08:18:12;;;;;;;7.95;3.17;;;563.80;1536.00;;;;;;5094629;28;20380;-77
2022/05/08 08:20:38;;;;;;;5.68;3.30;;;563.90;1587.20;;;;;;5095696;28;20012;-78
2022/05/08 08:23:04;;;;;;;7.72;3.75;;;563.90;1510.40;;;;;;5094248;28;20140;-78
2022/05/08 08:25:30;;;;;;;6.68;3.35;;;564.10;1484.80;;;;;;5095483;28;20488;-77
2022/05/08 08:27:57;;;;;;;7.32;3.33;;;564.10;1433.60;;;;;;5093883;28;20057;-77
2022/05/08 08:30:22;;;;;;;9.63;3.35;;;564.10;1408.00;;;;;;5094311;28;20472;-78
2022/05/08 08:32:48;;;;;;;7.20;3.40;;;564.00;1382.40;;;;;;5094551;28;20027;-77
2022/05/08 08:35:14;;;;;;;10.75;3.72;;;564.10;1433.60;;;;;;5096000;28;20062;-78
2022/05/08 08:37:40;;;;;;;8.38;3.17;;;564.10;1382.40;;;;;;5095592;28;20461;-77
2022/05/08 08:40:07;;;;;;;8.63;3.55;;;588.80;1408.00;;;;;;5094234;28;20400;-78
2022/05/08 08:42:33;;;;;;;8.57;3.90;;;588.90;1382.40;;;;;;5094290;28;20040;-77
2022/05/08 08:47:56;;;;;;;14.45;4.13;;;589.10;1356.80;;;;;;5095687;28;20051;-77
2022/05/08 08:50:26;;;;;;;7.13;3.30;;;589.10;1356.80;;;;;;5095688;28;20107;-78
2022/05/08 08:53:03;;;;;;;7.40;3.33;;;589.20;1382.40;;;;;;5094406;28;20020;-78
2022/05/08 08:55:31;;;;;;;10.40;3.17;;;589.30;1408.00;;;;;;5095681;28;20480;-78
2022/05/08 08:57:57;;;;;;;5.03;2.95;;;589.40;1408.00;;;;;;5094326;28;20032;-78
2022/05/08 09:00:23;;;;;;;14.02;3.25;;;589.40;1331.20;;;;;;5093597;28;20131;-76
2022/05/08 09:02:53;;;;;;;5.63;3.67;;;589.30;1356.80;;;;;;5094378;28;20028;-78
2022/05/08 09:05:19;;;;;;;5.40;3.00;;;589.30;1356.80;;;;;;5094089;28;20028;-78
2022/05/08 09:07:50;;;;;;;5.70;3.08;;;589.20;1305.60;;;;;;5093982;28;20024;-78
2022/05/08 09:10:21;;;;;;;7.28;3.35;;;589.40;1331.20;;;;;;5093785;28;20070;-78
2022/05/08 09:12:53;;;;;;;16.10;4.57;;;589.40;1280.00;;;;;;5093878;28;20032;-77
2022/05/08 09:15:34;;;;;;;8.00;3.42;;;589.60;1331.20;;;;;;5094283;28;20024;-77
2022/05/08 09:18:06;;;;;;;11.52;4.28;;;614.40;1356.80;;;;;;5094182;28;20095;-78
2022/05/08 09:20:35;;;;;;;8.85;3.42;;;589.70;1305.60;;;;;;5092832;28;20038;-77
2022/05/08 09:23:23;;;;;;;6.50;3.45;;;614.40;1356.80;;;;;;5094753;28;20051;-76
2022/05/08 09:26:00;;;;;;;8.52;3.38;;;614.50;1356.80;;;;;;5095158;28;20506;-78
2022/05/08 09:28:40;;;;;;;9.73;3.25;;;614.60;1331.20;;;;;;5093526;28;20123;-76
2022/05/08 09:31:07;;;;;;;5.20;3.13;;;614.80;1382.40;;;;;;5094600;28;20013;-77
2022/05/08 09:33:36;;;;;;;6.55;3.22;;;614.70;1280.00;;;;;;5093771;28;20035;-78
2022/05/08 09:36:07;;;;;;;7.47;3.78;;;614.50;1254.40;;;;;;5093247;28;20030;-77
2022/05/08 09:38:45;;;;;;;7.47;3.58;;;614.70;1305.60;;;;;;5094336;28;20044;-78
2022/05/08 09:41:12;;;;;;;6.15;3.15;;;614.90;1331.20;;;;;;5093112;28;20395;-77
2022/05/08 09:43:40;;;;;;;12.43;3.78;;;615.00;1305.60;;;;;;5093177;28;20055;-77
2022/05/08 09:46:07;;;;;;;8.07;3.45;;;615.20;1305.60;;;;;;5092590;28;20066;-76
2022/05/08 09:48:33;;;;;;;7.03;4.03;;;615.20;1280.00;;;;;;5092495;28;20044;-77
2022/05/08 09:51:03;;;;;;;7.45;3.72;;;640.00;1280.00;;;;;;5092732;28;20073;-77
2022/05/08 09:53:30;;;;;;;6.50;3.17;;;640.10;1280.00;;;;;;5092579;28;20020;-76
2022/05/08 09:55:57;;;;;;;5.85;3.30;;;640.20;1254.40;;;;;;5089784;28;20012;-77
2022/05/08 09:58:23;;;;;;;6.25;3.38;;;640.30;1280.00;;;;;;5092371;28;20060;-77
2022/05/08 10:00:54;;;;;;;9.35;3.45;;;640.40;1228.80;;;;;;5093043;28;20044;-77
2022/05/08 10:03:21;;;;;;;5.80;3.08;;;640.40;1203.20;;;;;;5092204;28;20028;-77
2022/05/08 10:05:47;;;;;;;5.47;3.28;;;640.50;1203.20;;;;;;5091913;28;20084;-77
2022/05/08 10:08:15;;;;;;;7.95;4.43;;;640.50;1203.20;;;;;;5092754;28;20070;-77
2022/05/08 10:14:27;;;;;;;7.63;3.65;;;665.90;1203.20;;;;;;5093426;28;20039;-77
2022/05/08 10:17:01;;;;;;;8.38;3.75;;;666.10;1203.20;;;;;;5091007;28;20039;-77
2022/05/08 10:19:26;;;;;;;7.38;3.72;;;665.80;1152.00;;;;;;5091952;28;20035;-77
2022/05/08 10:22:09;;;;;;;9.65;4.07;;;666.00;1228.80;;;;;;5092545;28;20476;-77
2022/05/08 10:24:41;;;;;;;9.60;3.60;;;665.90;1254.40;;;;;;5091899;28;20440;-77
2022/05/08 10:27:22;;;;;;;8.82;3.65;;;666.00;1203.20;;;;;;5092134;28;20499;-77
2022/05/08 10:29:52;;;;;;;8.27;3.40;;;666.20;1228.80;;;;;;5093493;28;20028;-78
2022/05/08 10:32:43;;;;;;;13.60;3.63;;;666.20;1177.60;;;;;;5093534;28;20012;-77
2022/05/08 10:35:23;;;;;;;8.18;3.08;;;666.30;1177.60;;;;;;5030714;28;20037;-78
2022/05/08 10:37:50;;;;;;;11.00;3.80;;;666.30;1126.40;;;;;;5030858;28;20037;-78
2022/05/08 10:40:21;;;;;;;6.00;3.00;;;691.20;1152.00;;;;;;5029999;28;20311;-78
2022/05/08 10:42:48;;;;;;;7.18;4.28;;;691.30;1126.40;;;;;;5031301;28;20524;-79
2022/05/08 10:45:42;;;;;;;11.20;4.18;;;691.20;1126.40;;;;;;5030952;28;20057;-77
2022/05/08 10:48:18;;;;;;;9.35;4.03;;;666.50;1177.60;;;;;;5030966;28;20025;-77
2022/05/08 10:50:49;;;;;;;8.02;3.33;;;691.30;1126.40;;;;;;5014487;28;20021;-76
2022/05/08 10:53:25;;;;;;;7.85;3.53;;;691.30;1203.20;;;;;;5014412;28;20493;-77
2022/05/08 10:55:51;;;;;;;11.07;4.00;;;691.30;1203.20;;;;;;5030367;28;20029;-78
2022/05/08 10:58:18;;;;;;;7.70;3.30;;;691.30;1152.00;;;;;;5030570;28;20497;-80
2022/05/08 11:00:44;;;;;;;5.90;3.58;;;691.20;1203.20;;;;;;5013482;28;20048;-77
2022/05/08 11:03:10;;;;;;;8.73;3.85;;;666.20;1177.60;;;;;;5014192;28;20033;-77
2022/05/08 11:05:38;;;;;;;10.18;3.65;;;691.20;1177.60;;;;;;5030033;28;20045;-77
2022/05/08 11:08:04;;;;;;;7.53;3.58;;;691.30;1126.40;;;;;;5030281;28;20024;-76
2022/05/08 11:10:40;;;;;;;8.18;3.72;;;691.30;1075.20;;;;;;5029656;28;20025;-78
2022/05/08 11:13:17;;;;;;;5.82;3.40;;;691.30;1100.80;;;;;;5086574;28;20051;-77
2022/05/08 11:15:43;;;;;;;8.00;3.92;;;691.20;1075.20;;;;;;5088462;28;20399;-78
2022/05/08 11:18:17;;;;;;;6.32;3.45;;;691.40;1126.40;;;;;;5090852;28;20036;-79
2022/05/08 11:21:08;;;;;;;8.13;3.30;;;691.80;1049.60;;;;;;5088360;28;20032;-79
2022/05/08 11:23:36;;;;;;;6.47;3.60;;;691.60;1024.00;;;;;;5091368;28;20051;-79
2022/05/08 11:26:07;;;;;;;9.10;3.75;;;691.80;1049.60;;;;;;5087771;28;20127;-78
2022/05/08 11:28:35;;;;;;;9.10;2.80;;;692.10;1024.00;;;;;;5092250;28;20020;-78
2022/05/08 11:31:12;;;;;;;8.65;3.65;;;692.10;998.40;;;;;;5090676;28;20491;-78
2022/05/08 11:36:25;;;;;;;6.25;3.33;;;692.10;972.80;;;;;;5089945;28;20144;-79
2022/05/08 11:38:59;;;;;;;6.93;3.10;;;691.80;1049.60;;;;;;5090628;28;20035;-78
2022/05/08 11:41:32;;;;;;;10.15;3.15;;;691.60;1024.00;;;;;;5085524;28;20093;-78
2022/05/08 11:44:13;;;;;;;4.40;3.00;;;691.70;1049.60;;;;;;5091864;28;20491;-78
2022/05/08 11:46:40;;;;;;;8.02;3.58;;;691.60;1049.60;;;;;;5089115;28;20036;-77
2022/05/08 11:49:21;;;;;;;5.97;2.90;;;691.50;1075.20;;;;;;5092034;28;20446;-78
2022/05/08 11:51:58;;;;;;;9.77;3.67;;;691.70;1075.20;;;;;;5088772;28;20032;-77
2022/05/08 11:54:40;;;;;;;6.10;3.17;;;691.70;1075.20;;;;;;5089855;28;20065;-77
2022/05/08 11:57:19;;;;;;;7.47;3.55;;;691.70;1049.60;;;;;;5089163;28;20123;-78
2022/05/08 11:59:49;;;;;;;7.18;3.50;;;691.40;1024.00;;;;;;5090377;28;20032;-78
2022/05/08 12:02:16;;;;;;;5.63;3.00;;;691.20;1024.00;;;;;;5088913;28;20028;-78
2022/05/08 12:04:57;;;;;;;7.55;3.72;;;691.50;1049.60;;;;;;5090122;28;20122;-78
2022/05/08 12:07:23;;;;;;;5.95;3.30;;;691.50;1024.00;;;;;;5090333;28;20504;-78
2022/05/08 12:09:48;;;;;;;10.25;3.40;;;691.80;1024.00;;;;;;5091468;28;20471;-78
2022/05/08 12:12:25;;;;;;;11.77;3.65;;;692.00;972.80;;;;;;5090853;28;20065;-78
2022/05/08 12:15:06;;;;;;;5.90;3.08;;;692.00;972.80;;;;;;5087907;28;20126;-78
2022/05/08 12:17:44;;;;;;;23.58;4.18;;;691.90;998.40;;;;;;5088225;28;20028;-78
2022/05/08 12:20:11;;;;;;;6.07;3.13;;;691.90;947.20;;;;;;5090115;28;20034;-77
2022/05/08 12:22:37;;;;;;;9.10;3.65;;;691.90;947.20;;;;;;5091625;28;20030;-77
2022/05/08 12:25:04;;;;;;;6.60;3.40;;;691.60;921.60;;;;;;5091623;28;20024;-77
2022/05/08 12:27:30;;;;;;;7.60;3.35;;;691.60;972.80;;;;;;5090161;28;20480;-77
2022/05/08 12:29:57;;;;;;;7.80;3.30;;;691.40;947.20;;;;;;5090448;28;20028;-78
2022/05/08 12:32:25;;;;;;;8.88;3.00;;;691.50;998.40;;;;;;5087022;28;20081;-77
2022/05/08 12:34:50;;;;;;;10.40;4.10;;;691.40;947.20;;;;;;5090256;28;20060;-78
2022/05/08 12:37:17;;;;;;;7.15;3.75;;;691.40;947.20;;;;;;5091115;28;20059;-77
2022/05/08 12:39:44;;;;;;;8.32;3.22;;;691.70;947.20;;;;;;5089936;28;20020;-77
2022/05/08 12:42:11;;;;;;;5.40;2.97;;;691.80;896.00;;;;;;5091592;28;20031;-78